Time;durP1;ratioP1;P1;durP2;ratioP2;P2;SDS_P1;SDS_P2;PMS_P1;PMS_P2;Temp;Humidity;BMP_temperature;BMP_pressure;BME280_temperature;BME280_humidity;BME280_pressure;Samples;Min_cycle;Max_cycle;Signal;HPM_P1;HPM_P2
2021/06/10 16:06:05;;;;;;;16.27;3.60;;;26.90;53.40;;;;;;1958969;72;25736;-54
2021/06/10 16:08:34;;;;;;;20.12;4.92;;;26.90;53.30;;;;;;1918474;74;21058;-49
2021/06/10 16:11:03;;;;;;;22.73;4.55;;;26.90;53.10;;;;;;1918421;75;21069;-53
2021/06/10 16:15:18;;;;;;;14.40;3.52;;;26.70;52.30;;;;;;1973175;72;25812;-50
2021/06/10 16:17:48;;;;;;;11.18;3.47;;;26.70;53.30;;;;;;1875557;74;24175;-47
2021/06/10 16:20:18;;;;;;;18.20;3.33;;;26.60;53.30;;;;;;1861476;76;21137;-47
2021/06/10 16:22:48;;;;;;;4.87;3.00;;;26.50;53.40;;;;;;1861313;77;21634;-51
2021/06/10 16:25:19;;;;;;;7.25;3.12;;;26.50;53.30;;;;;;1860686;76;21043;-46
2021/06/10 16:27:50;;;;;;;23.38;4.40;;;26.50;53.40;;;;;;1861064;76;21058;-48
2021/06/10 16:30:38;;;;;;;40.65;5.55;;;26.30;53.10;;;;;;1959037;72;27666;-53
2021/06/10 16:33:07;;;;;;;9.93;3.70;;;26.30;53.60;;;;;;1906181;75;21046;-53
2021/06/10 16:35:37;;;;;;;7.47;3.27;;;26.10;53.20;;;;;;1869868;77;21026;-54
2021/06/10 16:38:06;;;;;;;11.57;5.05;;;26.00;53.30;;;;;;1854202;77;21032;-53
2021/06/10 16:40:36;;;;;;;9.40;3.15;;;25.90;53.20;;;;;;1854254;77;21036;-52
2021/06/10 16:43:05;;;;;;;4.95;3.87;;;25.70;53.40;;;;;;1854275;77;21051;-52
2021/06/10 16:45:34;;;;;;;3.92;2.60;;;25.60;53.60;;;;;;1854331;77;21048;-53
2021/06/10 16:48:04;;;;;;;7.65;3.33;;;25.50;53.50;;;;;;1854242;77;21033;-51
2021/06/10 16:50:33;;;;;;;4.28;3.20;;;25.50;53.70;;;;;;1854278;77;21055;-52
2021/06/10 16:53:03;;;;;;;6.55;3.45;;;25.40;54.00;;;;;;1854313;77;21090;-53
2021/06/10 16:55:32;;;;;;;7.22;4.10;;;25.30;54.20;;;;;;1854295;77;21056;-52
2021/06/10 16:58:02;;;;;;;7.25;4.55;;;25.20;54.20;;;;;;1854170;77;21102;-51
2021/06/10 17:00:35;;;;;;;5.92;3.47;;;25.10;54.30;;;;;;1854210;77;21083;-51
2021/06/10 17:05:35;;;;;;;11.63;4.00;;;24.80;54.60;;;;;;1854128;77;21078;-52
2021/06/10 17:08:05;;;;;;;6.80;4.33;;;24.70;54.90;;;;;;1854344;77;21039;-53
2021/06/10 17:10:36;;;;;;;7.75;4.25;;;24.60;55.10;;;;;;1854214;77;21102;-52
2021/06/10 17:13:06;;;;;;;7.97;3.60;;;24.50;55.40;;;;;;1854124;77;21016;-52
2021/06/10 17:15:36;;;;;;;8.03;4.33;;;24.40;55.60;;;;;;1854191;77;21036;-53
2021/06/10 17:18:09;;;;;;;7.87;4.15;;;24.30;55.80;;;;;;1854042;77;21032;-51
2021/06/10 17:20:42;;;;;;;7.95;4.15;;;24.20;55.90;;;;;;1854223;77;21039;-52
2021/06/10 17:23:12;;;;;;;8.23;3.62;;;24.20;56.00;;;;;;1854143;77;21505;-52
2021/06/10 17:25:42;;;;;;;11.90;4.03;;;24.10;56.00;;;;;;1854162;77;21519;-54
2021/06/10 17:28:11;;;;;;;9.80;5.55;;;24.00;56.30;;;;;;1854149;77;21078;-52
2021/06/10 17:30:41;;;;;;;12.88;4.33;;;23.90;56.50;;;;;;1854249;77;21172;-54
2021/06/10 17:33:10;;;;;;;9.00;3.87;;;23.80;56.70;;;;;;1854206;77;21618;-54
2021/06/10 17:35:40;;;;;;;8.70;4.10;;;23.60;57.00;;;;;;1854160;77;21107;-53
2021/06/10 17:38:09;;;;;;;4.62;3.30;;;23.60;57.10;;;;;;1854070;77;21035;-53
2021/06/10 17:40:38;;;;;;;6.25;3.90;;;23.50;57.20;;;;;;1853899;77;21035;-53
2021/06/10 17:43:08;;;;;;;5.83;3.37;;;23.40;57.20;;;;;;1853525;77;21035;-54
2021/06/10 17:45:39;;;;;;;7.17;3.47;;;23.30;57.40;;;;;;1853503;77;21024;-52
2021/06/10 17:48:09;;;;;;;4.87;3.65;;;23.20;57.60;;;;;;1853541;77;21118;-53
2021/06/10 17:50:38;;;;;;;8.98;3.85;;;23.10;57.80;;;;;;1853514;77;21032;-53
2021/06/10 17:53:08;;;;;;;4.37;3.40;;;23.00;58.10;;;;;;1853526;77;21012;-52
2021/06/10 17:55:37;;;;;;;6.17;3.75;;;23.00;58.20;;;;;;1853556;77;21105;-53
2021/06/10 17:58:07;;;;;;;11.30;4.85;;;22.90;58.40;;;;;;1853529;77;21059;-53
2021/06/10 18:00:38;;;;;;;10.90;3.58;;;22.80;58.40;;;;;;1853540;77;21040;-52
2021/06/10 18:03:07;;;;;;;7.15;3.33;;;22.80;58.60;;;;;;1853693;77;21025;-53
2021/06/10 18:05:36;;;;;;;10.93;4.00;;;22.70;58.70;;;;;;1853749;77;21056;-52
2021/06/10 18:08:07;;;;;;;7.65;4.47;;;22.70;58.70;;;;;;1853474;77;21105;-50
2021/06/10 18:10:37;;;;;;;4.97;3.45;;;22.80;58.90;;;;;;1853611;77;21028;-52
2021/06/10 18:13:07;;;;;;;8.75;3.55;;;22.80;58.90;;;;;;1853504;77;21044;-53
2021/06/10 18:15:36;;;;;;;5.80;3.62;;;22.80;58.90;;;;;;1853532;77;21041;-52
2021/06/10 18:18:07;;;;;;;3.72;3.42;;;22.70;59.10;;;;;;1853475;77;21106;-53
2021/06/10 18:20:37;;;;;;;4.35;3.92;;;22.70;59.30;;;;;;1853660;77;21015;-53
2021/06/10 18:23:06;;;;;;;4.58;3.37;;;22.60;59.30;;;;;;1853481;77;21039;-52
2021/06/10 18:25:36;;;;;;;5.78;3.30;;;22.60;59.40;;;;;;1853647;77;21035;-53
2021/06/10 18:28:06;;;;;;;8.50;4.05;;;22.60;59.30;;;;;;1853523;77;21035;-53
2021/06/10 18:30:35;;;;;;;5.78;3.62;;;22.60;59.50;;;;;;1854477;77;21572;-53
2021/06/10 18:33:05;;;;;;;6.10;3.72;;;22.60;59.80;;;;;;1906186;75;21007;-53
2021/06/10 18:35:34;;;;;;;6.15;4.40;;;22.60;59.80;;;;;;1906925;74;21073;-51
2021/06/10 18:38:04;;;;;;;8.53;4.17;;;22.50;60.10;;;;;;1905403;75;21085;-53
2021/06/10 18:40:33;;;;;;;5.30;3.87;;;22.50;60.00;;;;;;1904939;75;21073;-53
2021/06/10 18:43:02;;;;;;;6.17;3.47;;;22.50;59.90;;;;;;1905028;75;21007;-52
2021/06/10 18:45:32;;;;;;;5.67;3.67;;;22.40;60.20;;;;;;1905048;75;21015;-53
2021/06/10 18:48:02;;;;;;;5.97;4.08;;;22.30;60.30;;;;;;1904912;75;21120;-53
2021/06/10 18:50:32;;;;;;;5.42;3.60;;;22.30;60.30;;;;;;1905008;75;21085;-51
2021/06/10 18:53:01;;;;;;;4.58;3.60;;;22.20;60.40;;;;;;1904812;75;21063;-52
2021/06/10 18:55:30;;;;;;;8.08;4.72;;;22.00;60.30;;;;;;1904905;75;21093;-53
2021/06/10 18:58:00;;;;;;;7.83;4.00;;;21.90;60.80;;;;;;1904894;75;21015;-53
2021/06/10 19:00:29;;;;;;;6.15;4.28;;;21.80;61.20;;;;;;1905022;75;21038;-52
2021/06/10 19:02:59;;;;;;;6.97;4.33;;;21.80;61.60;;;;;;1904960;75;21446;-54
2021/06/10 19:05:30;;;;;;;6.20;3.80;;;21.80;61.70;;;;;;1905043;75;21015;-52
2021/06/10 19:08:00;;;;;;;5.90;4.47;;;21.80;61.80;;;;;;1892394;75;21036;-53
2021/06/10 19:10:29;;;;;;;4.95;3.72;;;21.80;61.90;;;;;;1904928;75;21047;-52
2021/06/10 19:12:59;;;;;;;4.85;3.77;;;21.80;62.00;;;;;;1904912;75;21090;-51
2021/06/10 19:15:31;;;;;;;5.58;4.20;;;21.80;62.10;;;;;;1904959;75;21063;-53
2021/06/10 19:17:59;;;;;;;4.70;4.30;;;21.80;62.10;;;;;;1904995;74;21028;-51
2021/06/10 19:20:28;;;;;;;7.53;3.70;;;21.70;62.40;;;;;;1905055;74;21019;-52
2021/06/10 19:22:58;;;;;;;9.13;5.12;;;21.60;62.50;;;;;;1905006;75;21011;-52
2021/06/10 19:25:28;;;;;;;6.83;4.28;;;21.60;62.50;;;;;;1905016;74;21015;-52
2021/06/10 19:27:57;;;;;;;5.87;3.85;;;21.50;62.60;;;;;;1905038;75;21028;-52
2021/06/10 19:30:27;;;;;;;5.40;4.40;;;21.50;63.00;;;;;;1905161;74;21031;-52
2021/06/10 19:32:57;;;;;;;5.55;4.50;;;21.40;63.50;;;;;;1905752;75;21051;-52
2021/06/10 19:35:27;;;;;;;4.28;3.87;;;21.40;63.70;;;;;;1905711;75;21017;-52
2021/06/10 19:37:59;;;;;;;6.20;5.60;;;21.40;63.80;;;;;;1869236;77;21088;-53
2021/06/10 19:40:28;;;;;;;6.97;4.90;;;21.40;63.70;;;;;;1853496;77;21098;-53
2021/06/10 19:42:58;;;;;;;6.67;5.05;;;21.50;63.80;;;;;;1853476;77;21035;-51
2021/06/10 19:45:27;;;;;;;5.15;4.45;;;21.50;63.70;;;;;;1853556;77;21114;-52
2021/06/10 19:47:58;;;;;;;5.30;4.78;;;21.40;63.70;;;;;;1853483;77;21036;-52
2021/06/10 19:50:28;;;;;;;5.78;4.20;;;21.40;63.90;;;;;;1853426;77;21105;-52
2021/06/10 19:52:58;;;;;;;5.92;4.45;;;21.40;64.20;;;;;;1853552;77;21036;-52
2021/06/10 19:55:27;;;;;;;7.50;5.00;;;21.30;64.30;;;;;;1853658;77;21048;-53
2021/06/10 19:57:57;;;;;;;8.78;5.15;;;21.30;64.50;;;;;;1853599;77;21102;-53
2021/06/10 20:00:28;;;;;;;8.00;4.80;;;21.30;64.40;;;;;;1853654;77;21128;-52
2021/06/10 20:02:58;;;;;;;8.18;5.00;;;21.30;64.50;;;;;;1853552;77;21032;-53
2021/06/10 20:05:27;;;;;;;8.63;4.67;;;21.30;64.70;;;;;;1853513;77;21440;-53
2021/06/10 20:07:57;;;;;;;8.23;5.08;;;21.30;64.70;;;;;;1853568;77;21015;-52
2021/06/10 20:10:26;;;;;;;9.95;5.28;;;21.30;64.40;;;;;;1853532;77;21011;-51
2021/06/10 20:12:56;;;;;;;6.15;4.62;;;21.20;64.30;;;;;;1853512;77;21102;-51
2021/06/10 20:15:25;;;;;;;7.15;5.17;;;21.20;64.70;;;;;;1853461;77;21146;-52
2021/06/10 20:17:55;;;;;;;9.15;5.03;;;21.10;64.60;;;;;;1853361;77;21032;-52
2021/06/10 20:20:25;;;;;;;15.38;6.53;;;21.00;64.70;;;;;;1853562;77;21039;-52
2021/06/10 20:22:55;;;;;;;21.05;7.08;;;20.90;64.80;;;;;;1853542;77;21098;-49
2021/06/10 20:25:25;;;;;;;8.93;6.05;;;20.90;65.10;;;;;;1853439;77;21012;-51
2021/06/10 20:30:42;;;;;;;10.82;6.22;;;20.80;65.20;;;;;;1853585;76;21073;-53
2021/06/10 20:33:12;;;;;;;7.22;5.10;;;20.70;65.40;;;;;;1856524;77;21056;-51
2021/06/10 20:35:42;;;;;;;9.05;5.50;;;20.60;65.80;;;;;;1856428;77;21090;-50
2021/06/10 20:38:11;;;;;;;8.85;5.60;;;20.60;66.00;;;;;;1856474;77;21101;-51
2021/06/10 20:40:41;;;;;;;11.25;5.83;;;20.50;66.10;;;;;;1856621;77;21105;-50
2021/06/10 20:43:10;;;;;;;7.85;6.05;;;20.30;66.20;;;;;;1856421;77;21008;-50
2021/06/10 20:45:41;;;;;;;9.53;5.10;;;20.20;66.70;;;;;;1856414;77;21492;-52
2021/06/10 20:48:11;;;;;;;5.35;4.85;;;20.20;67.10;;;;;;1856621;77;21109;-52
2021/06/10 20:50:40;;;;;;;8.03;5.35;;;20.20;67.50;;;;;;1856495;77;21036;-49
2021/06/10 20:53:10;;;;;;;9.68;5.65;;;20.20;67.60;;;;;;1856601;77;21509;-51
2021/06/10 20:55:39;;;;;;;8.75;6.00;;;20.20;67.60;;;;;;1856578;77;21093;-51
2021/06/10 20:58:09;;;;;;;5.47;4.97;;;20.20;67.70;;;;;;1856478;77;21177;-52
2021/06/10 21:00:38;;;;;;;6.97;5.65;;;20.20;67.80;;;;;;1856581;77;21101;-52
2021/06/10 21:03:07;;;;;;;6.15;4.78;;;20.30;67.80;;;;;;1856570;77;21035;-51
2021/06/10 21:05:37;;;;;;;10.75;4.75;;;20.40;67.70;;;;;;1856524;77;21060;-50
2021/06/10 21:08:07;;;;;;;6.67;5.35;;;20.50;67.70;;;;;;1856474;77;21106;-50
2021/06/10 21:10:36;;;;;;;5.30;4.80;;;20.50;67.50;;;;;;1856538;77;21040;-52
2021/06/10 21:13:05;;;;;;;6.85;5.62;;;20.50;67.50;;;;;;1856356;77;21106;-49
2021/06/10 21:15:35;;;;;;;8.00;5.65;;;20.50;67.40;;;;;;1856503;77;21087;-52
2021/06/10 21:18:04;;;;;;;6.62;4.97;;;20.50;67.40;;;;;;1856411;77;21039;-53
2021/06/10 21:20:37;;;;;;;5.53;4.60;;;20.50;67.30;;;;;;1856495;77;21012;-51
2021/06/10 21:23:07;;;;;;;7.90;4.87;;;20.50;67.40;;;;;;1856634;77;21031;-52
2021/06/10 21:25:36;;;;;;;5.20;4.58;;;20.40;67.90;;;;;;1856490;77;21113;-50
2021/06/10 21:28:06;;;;;;;6.87;4.53;;;20.30;68.10;;;;;;1856512;77;21105;-51
2021/06/10 21:30:36;;;;;;;9.48;5.12;;;20.30;68.20;;;;;;1856560;77;21055;-51
2021/06/10 21:33:05;;;;;;;6.53;5.05;;;20.30;68.20;;;;;;1856190;77;21137;-52
2021/06/10 21:35:35;;;;;;;8.15;5.10;;;20.40;68.10;;;;;;1904995;75;21051;-52
2021/06/10 21:38:04;;;;;;;5.53;4.75;;;20.40;68.00;;;;;;1905003;75;21531;-52
2021/06/10 21:40:34;;;;;;;9.40;5.17;;;20.30;68.00;;;;;;1904992;75;21097;-49
2021/06/10 21:43:03;;;;;;;7.42;5.05;;;20.30;68.00;;;;;;1905050;74;21055;-51
2021/06/10 21:45:33;;;;;;;7.05;4.72;;;20.30;67.90;;;;;;1905105;75;21014;-51
2021/06/10 21:48:02;;;;;;;6.20;4.87;;;20.30;68.00;;;;;;1905035;75;21063;-52
2021/06/10 21:50:32;;;;;;;8.98;5.53;;;20.30;68.00;;;;;;1904899;75;21081;-49
2021/06/10 21:53:01;;;;;;;7.65;4.97;;;20.30;68.20;;;;;;1904963;75;21015;-51
2021/06/10 21:55:31;;;;;;;7.92;5.35;;;20.20;68.00;;;;;;1904993;75;21012;-51
2021/06/10 21:58:00;;;;;;;5.35;4.85;;;20.10;68.20;;;;;;1905004;75;21087;-49
2021/06/10 22:00:31;;;;;;;13.62;6.33;;;20.00;68.40;;;;;;1905053;75;21027;-52
2021/06/10 22:03:00;;;;;;;6.75;5.20;;;20.00;68.30;;;;;;1905098;75;21086;-52
2021/06/10 22:05:30;;;;;;;9.18;5.83;;;19.90;68.40;;;;;;1905014;75;21089;-51
2021/06/10 22:08:02;;;;;;;5.35;4.45;;;19.90;68.70;;;;;;1905051;74;20996;-52
2021/06/10 22:10:34;;;;;;;9.70;5.20;;;19.90;69.00;;;;;;1905154;75;21549;-49
2021/06/10 22:13:04;;;;;;;8.10;5.12;;;19.90;69.20;;;;;;1905074;75;21059;-48
2021/06/10 22:15:34;;;;;;;7.22;5.20;;;19.90;69.20;;;;;;1905037;75;21043;-51
2021/06/10 22:18:04;;;;;;;9.13;4.97;;;19.90;69.30;;;;;;1905030;74;21121;-52
2021/06/10 22:20:33;;;;;;;21.00;6.17;;;19.90;69.20;;;;;;1905018;75;21055;-49
2021/06/10 22:23:03;;;;;;;6.80;5.40;;;19.90;69.30;;;;;;1905047;75;21081;-52
2021/06/10 22:25:34;;;;;;;6.78;5.33;;;19.90;69.40;;;;;;1904997;74;21070;-50
2021/06/10 22:28:04;;;;;;;5.65;5.12;;;19.90;69.60;;;;;;1905069;75;21168;-52
2021/06/10 22:30:36;;;;;;;10.98;5.75;;;19.90;69.80;;;;;;1904994;75;21136;-51
2021/06/10 22:33:14;;;;;;;8.38;6.08;;;19.80;69.80;;;;;;1912090;75;21539;-52
2021/06/10 22:35:46;;;;;;;7.28;6.10;;;19.80;69.70;;;;;;1881662;76;21081;-51
2021/06/10 22:38:16;;;;;;;12.30;6.55;;;19.60;69.80;;;;;;1918200;75;21011;-50
2021/06/10 22:40:48;;;;;;;9.90;6.12;;;19.50;70.10;;;;;;1918232;74;21081;-53
2021/06/10 22:43:18;;;;;;;9.78;6.40;;;19.40;70.40;;;;;;1918476;74;21457;-52
2021/06/10 22:45:48;;;;;;;8.98;6.60;;;19.30;70.70;;;;;;1881590;76;21002;-48
2021/06/10 22:48:17;;;;;;;8.65;6.22;;;19.30;71.00;;;;;;1918393;74;20991;-50
2021/06/10 22:50:47;;;;;;;11.20;6.65;;;19.30;71.20;;;;;;1881711;76;21018;-51
2021/06/10 22:53:23;;;;;;;7.47;6.08;;;19.20;71.40;;;;;;1918442;75;21011;-49
2021/06/10 22:55:55;;;;;;;10.63;5.90;;;19.20;71.50;;;;;;1881826;76;21038;-50
2021/06/10 22:58:25;;;;;;;7.90;6.12;;;19.20;71.60;;;;;;1918273;74;21096;-51
2021/06/10 23:00:55;;;;;;;9.78;5.75;;;19.30;71.60;;;;;;1881829;75;21022;-51
2021/06/10 23:03:25;;;;;;;9.18;5.55;;;19.30;71.60;;;;;;1918330;75;21002;-52
2021/06/10 23:05:55;;;;;;;7.20;5.55;;;19.30;71.50;;;;;;1881695;76;21088;-51
2021/06/10 23:08:25;;;;;;;10.70;6.72;;;19.40;71.60;;;;;;1918424;75;21019;-49
2021/06/10 23:10:55;;;;;;;6.45;5.08;;;19.40;71.30;;;;;;1918256;73;21014;-48
2021/06/10 23:13:25;;;;;;;8.33;5.53;;;19.30;70.90;;;;;;1881670;76;21088;-48
2021/06/10 23:15:54;;;;;;;7.37;5.35;;;19.30;71.00;;;;;;1918393;75;21524;-49
2021/06/10 23:18:24;;;;;;;6.33;5.35;;;19.20;71.30;;;;;;1881725;76;21073;-51
2021/06/10 23:20:53;;;;;;;6.08;5.00;;;19.10;71.60;;;;;;1918194;74;21116;-50
2021/06/10 23:23:23;;;;;;;6.37;5.33;;;19.10;71.90;;;;;;1918252;75;21047;-51
2021/06/10 23:25:52;;;;;;;11.28;5.72;;;19.10;72.00;;;;;;1881605;76;21080;-49
2021/06/10 23:28:21;;;;;;;9.80;5.65;;;19.10;71.60;;;;;;1918319;75;21007;-51
2021/06/10 23:30:51;;;;;;;7.25;5.20;;;19.00;71.60;;;;;;1881727;76;21088;-51
2021/06/10 23:33:21;;;;;;;9.15;5.75;;;18.90;71.80;;;;;;1912942;75;21048;-50
2021/06/10 23:35:50;;;;;;;5.95;5.00;;;18.80;71.90;;;;;;1904918;75;21015;-51
2021/06/10 23:38:20;;;;;;;8.05;5.72;;;18.80;72.20;;;;;;1904906;75;21036;-52
2021/06/10 23:40:49;;;;;;;6.45;5.45;;;18.70;72.40;;;;;;1904947;75;21019;-51
2021/06/10 23:43:19;;;;;;;8.78;5.55;;;18.80;72.60;;;;;;1904910;75;21010;-52
2021/06/10 23:45:48;;;;;;;5.35;4.85;;;18.80;72.60;;;;;;1905002;75;21093;-50
2021/06/10 23:48:19;;;;;;;6.28;5.35;;;18.90;72.40;;;;;;1904920;75;21089;-51
2021/06/10 23:50:48;;;;;;;6.67;4.92;;;18.90;72.40;;;;;;1904889;75;21097;-52
2021/06/10 23:53:25;;;;;;;5.25;4.75;;;18.80;72.50;;;;;;1904995;75;21512;-51
2021/06/10 23:55:56;;;;;;;10.23;5.83;;;18.80;72.60;;;;;;1904920;75;21079;-51
2021/06/10 23:58:26;;;;;;;6.45;4.47;;;18.90;72.50;;;;;;1904878;75;21017;-50
